Time;durP1;ratioP1;P1;durP2;ratioP2;P2;SDS_P1;SDS_P2;PMS_P1;PMS_P2;Temp;Humidity;BMP_temperature;BMP_pressure;BME280_temperature;BME280_humidity;BME280_pressure;Samples;Min_cycle;Max_cycle;Signal;HPM_P1;HPM_P2
2022/06/27 00:01:29;;;;;;;12.70;2.90;;;;;;;;;;4953950;28;20027;-84
2022/06/27 00:03:55;;;;;;;9.00;2.75;;;;;;;;;;4953075;28;20039;-90
2022/06/27 00:06:21;;;;;;;9.10;3.10;;;;;;;;;;4952711;28;20030;-85
2022/06/27 00:08:50;;;;;;;13.90;4.10;;;;;;;;;;4952954;28;20028;-84
2022/06/27 00:11:17;;;;;;;19.38;3.92;;;;;;;;;;4952786;29;20094;-85
2022/06/27 00:13:43;;;;;;;10.85;3.15;;;;;;;;;;4967818;28;20035;-84
2022/06/27 00:16:10;;;;;;;17.52;3.50;;;;;;;;;;4952833;28;20027;-89
2022/06/27 00:18:36;;;;;;;14.13;3.72;;;;;;;;;;4953754;28;20032;-89
2022/06/27 00:21:02;;;;;;;16.52;3.28;;;;;;;;;;4953824;28;20050;-93
2022/06/27 00:23:28;;;;;;;19.40;3.47;;;;;;;;;;4953106;28;20125;-94
2022/06/27 00:25:54;;;;;;;19.95;3.35;;;;;;;;;;4966944;28;20031;-92
2022/06/27 00:28:20;;;;;;;14.23;3.20;;;;;;;;;;4952690;28;20035;-86
2022/06/27 00:30:47;;;;;;;15.80;3.33;;;;;;;;;;4967505;28;20574;-84
2022/06/27 00:33:13;;;;;;;13.38;2.92;;;;;;;;;;4967627;28;20403;-84
2022/06/27 00:35:39;;;;;;;13.60;3.60;;;;;;;;;;4953078;28;20033;-91
2022/06/27 00:38:05;;;;;;;12.23;3.05;;;;;;;;;;4953913;28;20031;-94
2022/06/27 00:40:31;;;;;;;17.63;3.17;;;;;;;;;;4953037;28;20106;-84
2022/06/27 00:42:57;;;;;;;16.20;3.20;;;;;;;;;;4969271;28;20066;-93
2022/06/27 00:45:23;;;;;;;10.07;2.83;;;;;;;;;;4954224;28;20062;-85
2022/06/27 00:47:50;;;;;;;17.33;3.50;;;;;;;;;;4955415;28;20024;-84
2022/06/27 00:50:16;;;;;;;9.55;3.17;;;;;;;;;;4954099;28;20042;-91
2022/06/27 00:52:43;;;;;;;12.13;2.92;;;;;;;;;;4961574;28;20032;-93
2022/06/27 00:55:09;;;;;;;17.35;3.33;;;;;;;;;;4960399;29;20042;-84
2022/06/27 00:57:35;;;;;;;10.20;2.60;;;;;;;;;;4977696;28;20058;-93
2022/06/27 01:00:01;;;;;;;11.75;3.03;;;;;;;;;;4952992;29;20031;-93
2022/06/27 01:02:27;;;;;;;11.43;2.90;;;;;;;;;;4952990;28;20106;-89
2022/06/27 01:04:54;;;;;;;13.65;3.13;;;;;;;;;;4953245;28;20615;-94
2022/06/27 01:07:20;;;;;;;18.33;3.25;;;;;;;;;;4953453;29;20028;-94
2022/06/27 01:09:46;;;;;;;6.95;2.72;;;;;;;;;;4968191;28;20114;-91
2022/06/27 01:12:12;;;;;;;11.25;3.03;;;;;;;;;;4952622;28;20039;-85
2022/06/27 01:14:38;;;;;;;10.43;2.67;;;;;;;;;;4968080;28;20019;-91
2022/06/27 01:17:04;;;;;;;19.75;3.15;;;;;;;;;;4952698;28;20111;-93
2022/06/27 01:19:30;;;;;;;14.32;3.25;;;;;;;;;;4952503;28;20758;-88
2022/06/27 01:21:57;;;;;;;10.07;2.85;;;;;;;;;;4952566;28;20032;-94
2022/06/27 01:24:24;;;;;;;18.52;3.25;;;;;;;;;;4952724;28;20062;-91
2022/06/27 01:26:50;;;;;;;18.90;3.72;;;;;;;;;;4953916;28;20114;-89
2022/06/27 01:29:16;;;;;;;13.38;3.10;;;;;;;;;;4953640;28;20455;-92
2022/06/27 01:31:43;;;;;;;18.88;3.45;;;;;;;;;;4952815;29;20031;-90
2022/06/27 01:34:09;;;;;;;11.80;3.08;;;;;;;;;;4953449;28;20023;-93
2022/06/27 01:36:41;;;;;;;11.95;3.28;;;;;;;;;;4951111;28;20031;-93
2022/06/27 01:39:07;;;;;;;17.45;3.47;;;;;;;;;;4970041;28;20034;-91
2022/06/27 01:41:33;;;;;;;8.80;2.92;;;;;;;;;;4970901;28;20034;-89
2022/06/27 01:43:59;;;;;;;14.02;3.17;;;;;;;;;;4955456;29;20036;-89
2022/06/27 01:46:37;;;;;;;25.02;3.08;;;;;;;;;;4952817;29;20562;-86
2022/06/27 01:49:03;;;;;;;9.73;3.30;;;;;;;;;;4947843;29;20039;-92
2022/06/27 01:51:29;;;;;;;21.88;3.85;;;;;;;;;;4952232;28;20291;-92
2022/06/27 01:53:55;;;;;;;18.25;3.50;;;;;;;;;;4957349;28;20027;-93
2022/06/27 01:56:21;;;;;;;11.68;2.88;;;;;;;;;;4962659;29;20027;-93
2022/06/27 01:58:47;;;;;;;14.18;3.83;;;;;;;;;;4975327;28;20038;-89
2022/06/27 02:01:13;;;;;;;12.23;3.70;;;;;;;;;;4962188;29;20027;-92
2022/06/27 02:03:39;;;;;;;17.88;3.33;;;;;;;;;;4979251;28;20403;-91
2022/06/27 02:06:05;;;;;;;13.93;3.10;;;;;;;;;;4958028;29;20102;-93
2022/06/27 02:08:32;;;;;;;22.08;3.55;;;;;;;;;;4954582;29;20066;-85
2022/06/27 02:10:58;;;;;;;16.90;3.13;;;;;;;;;;4954983;28;20035;-90
2022/06/27 02:13:24;;;;;;;13.68;3.08;;;;;;;;;;4969283;28;20031;-89
2022/06/27 02:16:04;;;;;;;11.48;2.60;;;;;;;;;;4966582;28;20480;-88
2022/06/27 02:18:30;;;;;;;15.38;3.92;;;;;;;;;;4951812;28;20534;-89
2022/06/27 02:20:57;;;;;;;13.55;3.30;;;;;;;;;;4968868;28;20041;-95
2022/06/27 02:23:23;;;;;;;8.43;2.75;;;;;;;;;;4953044;29;20031;-92
2022/06/27 02:25:49;;;;;;;11.13;3.20;;;;;;;;;;4967100;28;20031;-88
2022/06/27 02:28:17;;;;;;;13.40;3.28;;;;;;;;;;4958073;28;20038;-85
2022/06/27 02:30:43;;;;;;;21.33;4.43;;;;;;;;;;4943963;29;20034;-86
2022/06/27 02:33:09;;;;;;;14.93;3.45;;;;;;;;;;4939204;29;20016;-85
2022/06/27 02:35:36;;;;;;;8.98;3.00;;;;;;;;;;4933891;29;20031;-82
2022/06/27 02:38:02;;;;;;;14.30;4.35;;;;;;;;;;4932163;29;20098;-85
2022/06/27 02:40:29;;;;;;;11.18;3.35;;;;;;;;;;4931960;29;20393;-91
2022/06/27 02:42:56;;;;;;;14.07;4.70;;;;;;;;;;4932005;29;20020;-90
2022/06/27 02:45:23;;;;;;;20.85;4.38;;;;;;;;;;4947711;29;20407;-91
2022/06/27 02:47:50;;;;;;;15.35;4.35;;;;;;;;;;4954825;28;20412;-85
2022/06/27 02:50:16;;;;;;;14.65;4.47;;;;;;;;;;4954981;29;20031;-91
2022/06/27 02:52:45;;;;;;;16.17;3.78;;;;;;;;;;4970735;28;20023;-92
2022/06/27 02:55:15;;;;;;;15.05;4.28;;;;;;;;;;4955630;28;20498;-91
2022/06/27 02:58:01;;;;;;;13.75;3.95;;;;;;;;;;4970590;28;20055;-93
2022/06/27 03:00:32;;;;;;;13.05;4.25;;;;;;;;;;4955278;28;20027;-92
2022/06/27 03:02:59;;;;;;;11.77;4.25;;;;;;;;;;4954654;29;20023;-91
2022/06/27 03:05:25;;;;;;;15.15;4.18;;;;;;;;;;4970182;28;20039;-92
2022/06/27 03:07:51;;;;;;;11.13;3.65;;;;;;;;;;4970063;28;20028;-93
2022/06/27 03:10:18;;;;;;;15.80;3.80;;;;;;;;;;4971421;28;20107;-84
2022/06/27 03:12:44;;;;;;;14.02;3.83;;;;;;;;;;4958937;29;20040;-88
2022/06/27 03:15:10;;;;;;;13.90;3.97;;;;;;;;;;4935079;29;20044;-93
2022/06/27 03:17:36;;;;;;;13.68;4.03;;;;;;;;;;4935485;29;20307;-89
2022/06/27 03:20:03;;;;;;;16.73;4.43;;;;;;;;;;4940453;29;20031;-93
2022/06/27 03:22:29;;;;;;;13.20;3.75;;;;;;;;;;4954526;29;20031;-87
2022/06/27 03:24:55;;;;;;;13.02;3.92;;;;;;;;;;4954674;29;20435;-94
2022/06/27 03:27:21;;;;;;;12.43;4.15;;;;;;;;;;4969659;28;20031;-94
2022/06/27 03:29:47;;;;;;;13.48;3.92;;;;;;;;;;4954603;29;20027;-85
2022/06/27 03:32:13;;;;;;;13.45;3.70;;;;;;;;;;4970133;28;20023;-93
2022/06/27 03:34:39;;;;;;;12.32;5.10;;;;;;;;;;4954851;28;20094;-94
2022/06/27 03:37:05;;;;;;;11.25;3.90;;;;;;;;;;4954442;29;20060;-93
2022/06/27 03:39:32;;;;;;;14.15;3.60;;;;;;;;;;4969126;28;20110;-93
2022/06/27 03:41:58;;;;;;;24.67;4.35;;;;;;;;;;4954035;28;20090;-94
2022/06/27 03:44:24;;;;;;;8.30;3.33;;;;;;;;;;4974278;28;20070;-89
2022/06/27 03:46:50;;;;;;;14.70;3.92;;;;;;;;;;4956425;28;20019;-93
2022/06/27 03:52:01;;;;;;;10.13;3.55;;;;;;;;;;4956326;29;20123;-95
2022/06/27 03:54:27;;;;;;;14.05;3.78;;;;;;;;;;4953832;29;20149;-90
2022/06/27 03:56:55;;;;;;;14.25;3.20;;;;;;;;;;4953794;29;20055;-90
2022/06/27 03:59:21;;;;;;;20.75;3.85;;;;;;;;;;4953115;28;20114;-93
2022/06/27 04:01:47;;;;;;;11.90;3.83;;;;;;;;;;4954653;29;20030;-93
2022/06/27 04:04:13;;;;;;;13.77;3.33;;;;;;;;;;4953974;29;20035;-95
2022/06/27 04:06:39;;;;;;;18.27;3.67;;;;;;;;;;4954170;29;20372;-94
2022/06/27 04:09:05;;;;;;;10.68;4.10;;;;;;;;;;4954130;29;20399;-95
2022/06/27 04:11:31;;;;;;;16.00;4.00;;;;;;;;;;4968668;28;20034;-94
2022/06/27 04:13:57;;;;;;;11.63;3.05;;;;;;;;;;4954814;29;20028;-87
2022/06/27 04:16:23;;;;;;;10.50;3.30;;;;;;;;;;4953189;29;20087;-90
2022/06/27 04:18:49;;;;;;;13.63;3.35;;;;;;;;;;4955541;29;20031;-92
2022/06/27 04:21:15;;;;;;;14.75;3.70;;;;;;;;;;4958848;28;20051;-88
2022/06/27 04:23:41;;;;;;;12.50;3.50;;;;;;;;;;4954500;28;20036;-93
2022/06/27 04:26:07;;;;;;;9.48;3.33;;;;;;;;;;4954907;28;20400;-94
2022/06/27 04:28:34;;;;;;;6.80;2.85;;;;;;;;;;4954379;28;20030;-94
2022/06/27 04:31:01;;;;;;;14.48;3.42;;;;;;;;;;4954580;28;20054;-92
2022/06/27 04:33:27;;;;;;;13.68;3.80;;;;;;;;;;4953125;28;20107;-88
2022/06/27 04:35:53;;;;;;;9.13;3.50;;;;;;;;;;4953067;28;20093;-83
2022/06/27 04:38:20;;;;;;;13.77;3.78;;;;;;;;;;4953932;28;20023;-91
2022/06/27 04:40:46;;;;;;;14.85;3.75;;;;;;;;;;4955608;28;20019;-89
2022/06/27 04:43:12;;;;;;;16.20;3.80;;;;;;;;;;4954781;28;20117;-90
2022/06/27 04:45:39;;;;;;;8.38;3.10;;;;;;;;;;4952924;28;20027;-93
2022/06/27 04:48:06;;;;;;;10.80;3.67;;;;;;;;;;4952870;28;20030;-85
2022/06/27 04:50:32;;;;;;;8.85;3.28;;;;;;;;;;4952852;28;20118;-84
2022/06/27 04:53:01;;;;;;;7.68;3.30;;;;;;;;;;4953575;28;20498;-93
2022/06/27 04:55:28;;;;;;;14.25;3.17;;;;;;;;;;4953031;28;20034;-92
2022/06/27 04:57:55;;;;;;;10.18;2.63;;;;;;;;;;4952925;28;20023;-83
2022/06/27 05:00:21;;;;;;;11.23;3.42;;;;;;;;;;4953546;28;20031;-86
2022/06/27 05:02:47;;;;;;;11.55;2.80;;;;;;;;;;4953961;28;20035;-84
2022/06/27 05:05:13;;;;;;;11.20;2.88;;;;;;;;;;4953307;28;20027;-84
2022/06/27 05:07:39;;;;;;;14.23;2.83;;;;;;;;;;4947465;28;20023;-85
2022/06/27 05:10:06;;;;;;;8.63;2.50;;;;;;;;;;4964558;28;20031;-84
2022/06/27 05:12:32;;;;;;;9.68;2.92;;;;;;;;;;4979529;28;20035;-84
2022/06/27 05:14:59;;;;;;;13.65;3.42;;;;;;;;;;4962794;28;20034;-94
2022/06/27 05:17:25;;;;;;;13.68;3.55;;;;;;;;;;4955024;28;20086;-89
2022/06/27 05:19:51;;;;;;;20.48;3.17;;;;;;;;;;4951035;28;20106;-88
2022/06/27 05:22:17;;;;;;;8.95;3.90;;;;;;;;;;4940030;28;20082;-85
2022/06/27 05:24:43;;;;;;;9.40;3.22;;;;;;;;;;4966311;28;20421;-91
2022/06/27 05:27:09;;;;;;;6.75;3.00;;;;;;;;;;4952533;29;20102;-93
2022/06/27 05:29:36;;;;;;;14.48;4.38;;;;;;;;;;4951868;28;20436;-92
2022/06/27 05:32:02;;;;;;;12.02;3.20;;;;;;;;;;4966359;28;20030;-91
2022/06/27 05:34:28;;;;;;;14.68;4.03;;;;;;;;;;4951524;29;20023;-85
2022/06/27 05:36:54;;;;;;;13.70;3.45;;;;;;;;;;4954291;29;20055;-84
2022/06/27 05:39:20;;;;;;;11.85;3.15;;;;;;;;;;4968578;28;20174;-94
2022/06/27 05:41:46;;;;;;;15.77;4.03;;;;;;;;;;4952102;29;20027;-95
2022/06/27 05:44:16;;;;;;;18.33;4.32;;;;;;;;;;4951798;29;20031;-84
2022/06/27 05:46:42;;;;;;;18.92;4.00;;;;;;;;;;4951954;29;20023;-91
2022/06/27 05:49:11;;;;;;;21.08;3.60;;;;;;;;;;4951973;28;20027;-92
2022/06/27 05:51:38;;;;;;;18.50;3.65;;;;;;;;;;4951598;28;20053;-90
2022/06/27 05:54:05;;;;;;;16.52;3.67;;;;;;;;;;4966743;28;20023;-92
2022/06/27 05:56:32;;;;;;;17.53;3.77;;;;;;;;;;4966658;28;20055;-85
2022/06/27 05:58:58;;;;;;;15.45;3.80;;;;;;;;;;4951725;28;20031;-95
2022/06/27 06:01:25;;;;;;;18.55;3.50;;;;;;;;;;4966986;28;20030;-84
2022/06/27 06:03:51;;;;;;;17.10;3.83;;;;;;;;;;4951492;28;20483;-84
2022/06/27 06:06:18;;;;;;;19.63;4.20;;;;;;;;;;4944381;29;20032;-95
2022/06/27 06:08:45;;;;;;;20.13;4.20;;;;;;;;;;4942014;29;20024;-93
2022/06/27 06:11:13;;;;;;;16.92;3.90;;;;;;;;;;4940117;28;20514;-91
2022/06/27 06:13:39;;;;;;;13.57;3.28;;;;;;;;;;4939405;29;20042;-93
2022/06/27 06:16:06;;;;;;;17.48;3.97;;;;;;;;;;4939207;29;20082;-90
2022/06/27 06:18:33;;;;;;;17.20;4.25;;;;;;;;;;4941582;29;20078;-90
2022/06/27 06:20:59;;;;;;;14.43;3.22;;;;;;;;;;4941443;28;20027;-93
2022/06/27 06:23:25;;;;;;;11.50;3.20;;;;;;;;;;4942229;28;20076;-85
2022/06/27 06:25:52;;;;;;;23.63;4.82;;;;;;;;;;4945336;29;20531;-95
2022/06/27 06:28:18;;;;;;;22.88;3.78;;;;;;;;;;4945275;29;20023;-93
2022/06/27 06:30:44;;;;;;;20.67;3.80;;;;;;;;;;4960463;28;20525;-93
2022/06/27 06:33:11;;;;;;;15.23;3.90;;;;;;;;;;4948315;29;20063;-91
2022/06/27 06:35:37;;;;;;;16.50;3.75;;;;;;;;;;4945613;29;20020;-93
2022/06/27 06:38:05;;;;;;;22.10;3.97;;;;;;;;;;4968226;28;20042;-94
2022/06/27 06:40:31;;;;;;;18.02;3.80;;;;;;;;;;4955738;28;20102;-89
2022/06/27 06:43:00;;;;;;;15.75;3.90;;;;;;;;;;4955405;29;20086;-90
2022/06/27 06:45:26;;;;;;;15.10;4.22;;;;;;;;;;4970499;28;20027;-91
2022/06/27 06:47:53;;;;;;;15.75;4.32;;;;;;;;;;4956147;29;20031;-93
2022/06/27 06:50:20;;;;;;;18.20;3.70;;;;;;;;;;4970825;28;20403;-95
2022/06/27 06:52:50;;;;;;;16.20;4.10;;;;;;;;;;4955279;29;20550;-93
2022/06/27 06:55:17;;;;;;;23.40;3.83;;;;;;;;;;4947485;28;20028;-93
2022/06/27 06:57:43;;;;;;;18.90;4.03;;;;;;;;;;4945723;29;20038;-85
2022/06/27 07:00:10;;;;;;;16.50;4.03;;;;;;;;;;4955201;29;20031;-93
2022/06/27 07:02:36;;;;;;;14.25;3.72;;;;;;;;;;4955136;28;20024;-90
2022/06/27 07:05:11;;;;;;;18.35;3.90;;;;;;;;;;4955143;28;20043;-92
2022/06/27 07:07:37;;;;;;;16.98;3.47;;;;;;;;;;4955319;28;20422;-89
2022/06/27 07:10:04;;;;;;;20.52;3.83;;;;;;;;;;4954057;29;20019;-84
2022/06/27 07:12:33;;;;;;;21.75;3.85;;;;;;;;;;4953763;28;20051;-93
2022/06/27 07:15:00;;;;;;;20.42;4.60;;;;;;;;;;4954952;28;20055;-92
2022/06/27 07:17:27;;;;;;;18.23;3.55;;;;;;;;;;4954880;28;20415;-85
2022/06/27 07:19:53;;;;;;;28.00;3.50;;;;;;;;;;4955465;28;20386;-91
2022/06/27 07:22:20;;;;;;;18.23;2.80;;;;;;;;;;4954457;29;20027;-88
2022/06/27 07:24:47;;;;;;;27.70;3.90;;;;;;;;;;4953801;29;20511;-93
2022/06/27 07:27:15;;;;;;;16.03;2.63;;;;;;;;;;4949058;28;20518;-85
2022/06/27 07:29:41;;;;;;;14.65;3.20;;;;;;;;;;4943078;29;20038;-84
2022/06/27 07:32:08;;;;;;;24.13;3.50;;;;;;;;;;4943755;29;20475;-87
2022/06/27 07:34:35;;;;;;;23.35;3.22;;;;;;;;;;4957237;28;20023;-94
2022/06/27 07:37:01;;;;;;;25.58;4.72;;;;;;;;;;4944175;29;20090;-85
2022/06/27 07:39:27;;;;;;;21.92;3.55;;;;;;;;;;4959388;28;20030;-93
2022/06/27 07:41:53;;;;;;;20.42;3.65;;;;;;;;;;4945150;29;20090;-88
2022/06/27 07:44:19;;;;;;;12.90;2.45;;;;;;;;;;4958146;28;20046;-92
2022/06/27 07:46:46;;;;;;;19.23;2.97;;;;;;;;;;4954181;29;20295;-84
2022/06/27 07:49:12;;;;;;;19.17;2.92;;;;;;;;;;4957417;29;20034;-85
2022/06/27 07:51:38;;;;;;;17.15;3.10;;;;;;;;;;4960231;29;20019;-89
2022/06/27 07:54:04;;;;;;;18.48;2.83;;;;;;;;;;4952446;29;20039;-90
2022/06/27 07:56:30;;;;;;;22.40;3.13;;;;;;;;;;4944462;29;20108;-90
2022/06/27 07:58:56;;;;;;;18.45;2.60;;;;;;;;;;4944015;29;20553;-83
2022/06/27 08:01:23;;;;;;;18.15;3.50;;;;;;;;;;4939908;29;20023;-85
2022/06/27 08:03:50;;;;;;;21.10;3.20;;;;;;;;;;4943442;29;20038;-91
2022/06/27 08:06:21;;;;;;;19.10;3.50;;;;;;;;;;4942094;28;20537;-93
2022/06/27 08:08:48;;;;;;;21.25;3.45;;;;;;;;;;4942588;28;20494;-92
2022/06/27 08:11:25;;;;;;;15.85;2.63;;;;;;;;;;4943002;29;20365;-92
2022/06/27 08:13:53;;;;;;;20.98;3.10;;;;;;;;;;4956645;28;20039;-86
2022/06/27 08:16:20;;;;;;;18.85;2.90;;;;;;;;;;4941821;29;20074;-92
2022/06/27 08:18:47;;;;;;;19.90;3.10;;;;;;;;;;4945456;29;20421;-94
2022/06/27 08:21:16;;;;;;;21.35;2.75;;;;;;;;;;4956868;28;20036;-94
2022/06/27 08:23:43;;;;;;;22.90;3.08;;;;;;;;;;4960100;28;20039;-85
2022/06/27 08:26:10;;;;;;;22.23;3.10;;;;;;;;;;4942597;29;20154;-89
2022/06/27 08:28:37;;;;;;;22.43;2.70;;;;;;;;;;4946182;29;20024;-95
2022/06/27 08:31:07;;;;;;;26.45;3.92;;;17.70;99.90;;;;;;4946407;28;20024;-91
2022/06/27 08:33:34;;;;;;;18.08;2.90;;;17.70;99.90;;;;;;4959318;28;20059;-88
2022/06/27 08:36:02;;;;;;;21.92;3.45;;;17.80;99.90;;;;;;4951033;29;20034;-92
2022/06/27 08:38:28;;;;;;;20.75;3.15;;;17.90;99.90;;;;;;4957612;28;20097;-87
2022/06/27 08:40:55;;;;;;;24.98;2.85;;;18.00;99.90;;;;;;4941938;28;20059;-92
2022/06/27 08:43:21;;;;;;;19.40;2.53;;;18.00;99.90;;;;;;4943760;28;20051;-90
2022/06/27 08:45:50;;;;;;;17.30;2.72;;;18.10;99.90;;;;;;4942096;28;20039;-94
2022/06/27 08:48:16;;;;;;;15.65;2.55;;;18.20;99.90;;;;;;4940539;28;20027;-94
2022/06/27 08:50:43;;;;;;;21.23;2.78;;;18.30;99.90;;;;;;4942349;28;20031;-94
2022/06/27 08:53:11;;;;;;;18.00;2.60;;;18.30;99.90;;;;;;4943824;29;20066;-95
2022/06/27 08:55:37;;;;;;;10.65;2.17;;;18.40;99.90;;;;;;4957895;28;20035;-92
2022/06/27 08:58:11;;;;;;;15.30;2.47;;;18.50;99.90;;;;;;4943064;29;20027;-92
2022/06/27 09:00:40;;;;;;;15.05;2.40;;;18.60;99.90;;;;;;4942783;29;20054;-90
2022/06/27 09:03:07;;;;;;;20.52;2.78;;;18.80;99.90;;;;;;4956418;28;20395;-85
2022/06/27 09:05:34;;;;;;;10.57;2.47;;;19.10;99.90;;;;;;4943076;28;20027;-93
2022/06/27 09:08:06;;;;;;;19.88;2.67;;;19.20;99.90;;;;;;4940942;29;20074;-92
2022/06/27 09:10:42;;;;;;;23.35;2.95;;;19.30;99.90;;;;;;4940600;28;20027;-88
2022/06/27 09:13:08;;;;;;;13.55;2.58;;;19.20;99.90;;;;;;4950573;28;20035;-93
2022/06/27 09:15:50;;;;;;;12.88;2.38;;;19.20;99.90;;;;;;4942567;29;20034;-91
2022/06/27 09:18:22;;;;;;;9.32;1.98;;;18.90;99.90;;;;;;4943286;29;20030;-90
2022/06/27 09:21:01;;;;;;;18.70;2.40;;;18.70;99.90;;;;;;4941599;29;20388;-93
2022/06/27 09:24:01;;;;;;;14.90;1.90;;;18.70;99.90;;;;;;4940998;29;20035;-83
2022/06/27 09:26:29;;;;;;;21.60;2.95;;;18.70;99.90;;;;;;4941362;29;20379;-92
2022/06/27 09:29:03;;;;;;;14.82;2.40;;;18.70;99.90;;;;;;4955935;28;20078;-92
2022/06/27 09:31:39;;;;;;;17.15;2.50;;;18.60;99.90;;;;;;4939710;29;20057;-86
2022/06/27 09:34:14;;;;;;;9.45;2.25;;;18.50;99.10;;;;;;4940993;29;20146;-88
2022/06/27 09:37:03;;;;;;;19.75;3.10;;;18.50;99.90;;;;;;4953963;28;20043;-93
2022/06/27 09:39:34;;;;;;;8.50;1.70;;;18.80;99.90;;;;;;4956584;28;20431;-89
2022/06/27 09:42:04;;;;;;;9.70;2.00;;;18.80;99.70;;;;;;4940134;29;20031;-87
2022/06/27 09:44:38;;;;;;;19.63;2.65;;;18.70;99.90;;;;;;4957283;28;20042;-85
2022/06/27 09:47:21;;;;;;;12.32;2.38;;;18.80;99.90;;;;;;4940676;29;20048;-93
2022/06/27 09:49:52;;;;;;;13.25;2.42;;;18.90;99.90;;;;;;4942053;29;20019;-94
2022/06/27 09:52:26;;;;;;;13.57;2.00;;;19.20;99.90;;;;;;4956684;28;20118;-89
2022/06/27 09:54:54;;;;;;;20.42;2.58;;;19.40;99.90;;;;;;4940015;29;20054;-88
2022/06/27 09:57:21;;;;;;;13.98;2.00;;;19.60;99.90;;;;;;4941123;28;20020;-87
2022/06/27 09:59:51;;;;;;;15.43;2.40;;;19.60;99.90;;;;;;4941011;29;20032;-84
2022/06/27 10:02:19;;;;;;;9.45;2.05;;;19.80;96.30;;;;;;4942636;28;20024;-91
2022/06/27 10:04:47;;;;;;;25.58;2.95;;;19.70;95.10;;;;;;4936113;28;20035;-84
2022/06/27 10:07:15;;;;;;;13.63;2.30;;;19.50;95.40;;;;;;4932437;29;20024;-93
2022/06/27 10:09:42;;;;;;;12.40;2.40;;;19.40;98.20;;;;;;4932432;29;20051;-85
2022/06/27 10:12:36;;;;;;;10.02;2.33;;;19.50;99.90;;;;;;4932305;29;20040;-94
2022/06/27 10:15:10;;;;;;;23.15;2.72;;;19.70;99.90;;;;;;4932280;29;20027;-85
2022/06/27 10:17:51;;;;;;;10.10;1.90;;;20.00;99.90;;;;;;4963443;28;20028;-84
2022/06/27 10:20:29;;;;;;;10.40;2.10;;;20.20;99.90;;;;;;4951468;28;20031;-85
2022/06/27 10:23:03;;;;;;;7.15;1.70;;;20.30;95.90;;;;;;4953204;28;20023;-88
2022/06/27 10:25:29;;;;;;;14.70;2.03;;;20.20;92.40;;;;;;4964266;28;20038;-90
2022/06/27 10:28:11;;;;;;;11.02;2.08;;;20.30;91.90;;;;;;4960967;28;20047;-83
2022/06/27 10:30:53;;;;;;;13.35;2.10;;;20.40;99.10;;;;;;4966215;28;20062;-83
2022/06/27 10:33:22;;;;;;;8.82;2.47;;;20.40;90.90;;;;;;4951589;28;20031;-94
2022/06/27 10:35:57;;;;;;;11.18;1.90;;;20.30;91.30;;;;;;4952745;28;20041;-92
2022/06/27 10:38:44;;;;;;;11.80;2.28;;;20.40;94.40;;;;;;4953458;28;20487;-90
2022/06/27 10:41:19;;;;;;;16.20;2.58;;;20.70;89.30;;;;;;4955276;28;20027;-88
2022/06/27 10:43:53;;;;;;;10.13;1.92;;;20.80;91.00;;;;;;4954441;28;20088;-92
2022/06/27 10:46:18;;;;;;;12.20;2.30;;;20.90;92.70;;;;;;4953881;28;20020;-85
2022/06/27 10:48:48;;;;;;;9.90;2.00;;;21.10;92.80;;;;;;4951742;28;20020;-84
2022/06/27 10:51:33;;;;;;;18.98;2.80;;;21.00;80.00;;;;;;4953196;28;20027;-90
2022/06/27 10:53:58;;;;;;;9.20;1.85;;;21.00;93.20;;;;;;4951445;28;20022;-84
2022/06/27 10:56:44;;;;;;;9.40;2.10;;;21.10;88.60;;;;;;4952396;28;20031;-90
2022/06/27 10:59:15;;;;;;;10.48;2.60;;;20.90;86.80;;;;;;4951378;28;20556;-84
2022/06/27 11:01:50;;;;;;;16.92;2.35;;;20.60;86.70;;;;;;4952064;28;20031;-85
2022/06/27 11:04:30;;;;;;;12.85;1.90;;;20.40;86.40;;;;;;4967597;28;20039;-93
2022/06/27 11:06:59;;;;;;;8.60;2.28;;;20.10;88.70;;;;;;4958940;28;20027;-90
2022/06/27 11:09:44;;;;;;;10.20;2.92;;;19.90;90.00;;;;;;4947950;28;20034;-95
2022/06/27 11:12:12;;;;;;;11.38;2.45;;;19.90;92.10;;;;;;4959633;28;20031;-89
2022/06/27 11:14:47;;;;;;;;;;;19.80;92.30;;;;;;4954047;29;20024;-91
2022/06/27 11:17:33;;;;;;;11.88;1.95;;;19.80;95.30;;;;;;4969486;28;19912;-87
2022/06/27 11:20:29;;;;;;;7.80;1.95;;;19.80;95.40;;;;;;4955522;28;20019;-84
2022/06/27 11:22:58;;;;;;;8.52;2.00;;;19.80;95.70;;;;;;4948243;29;20059;-88
2022/06/27 11:25:27;;;;;;;12.13;2.15;;;19.80;95.60;;;;;;4955581;28;20487;-93
2022/06/27 11:33:35;;;;;;;10.20;2.00;;;19.90;94.30;;;;;;4951480;28;20077;-84
2022/06/27 11:36:01;;;;;;;7.10;2.10;;;19.80;95.90;;;;;;4954275;28;20023;-88
2022/06/27 11:38:39;;;;;;;11.23;2.33;;;19.90;96.70;;;;;;4954795;28;20114;-90
2022/06/27 11:41:13;;;;;;;9.88;2.20;;;20.10;98.10;;;;;;4954277;28;20023;-85
2022/06/27 11:43:51;;;;;;;8.32;1.80;;;20.20;94.80;;;;;;4953141;28;20118;-92
2022/06/27 11:46:23;;;;;;;6.28;1.73;;;20.20;96.20;;;;;;4953512;28;20102;-92
2022/06/27 11:49:04;;;;;;;11.02;2.58;;;20.40;96.10;;;;;;4953139;29;20028;-94
2022/06/27 11:51:34;;;;;;;8.25;2.13;;;20.60;94.10;;;;;;4954999;29;20106;-92
2022/06/27 11:54:06;;;;;;;10.25;1.85;;;20.60;94.40;;;;;;4954483;28;20076;-94
2022/06/27 11:56:36;;;;;;;9.82;1.90;;;20.60;95.10;;;;;;4953476;28;20035;-90
2022/06/27 11:59:04;;;;;;;12.05;1.90;;;20.70;93.80;;;;;;4954035;28;20024;-90
2022/06/27 12:01:30;;;;;;;8.32;1.55;;;20.80;94.50;;;;;;4954526;28;20059;-91
2022/06/27 12:04:08;;;;;;;4.20;1.38;;;20.90;95.10;;;;;;4954521;28;20028;-93
2022/06/27 12:06:52;;;;;;;10.15;1.95;;;21.00;94.20;;;;;;4954144;29;20034;-86
2022/06/27 12:09:18;;;;;;;10.77;2.08;;;21.00;91.30;;;;;;4952682;29;20027;-93
2022/06/27 12:11:49;;;;;;;10.48;1.70;;;21.00;82.30;;;;;;4953692;28;20038;-92
2022/06/27 12:14:15;;;;;;;6.22;1.50;;;20.80;87.40;;;;;;4953257;28;20575;-93
2022/06/27 12:16:46;;;;;;;5.43;1.52;;;20.70;84.00;;;;;;4953306;29;20106;-86
2022/06/27 12:19:11;;;;;;;11.77;1.52;;;20.70;81.40;;;;;;4953104;28;20419;-88
2022/06/27 12:21:37;;;;;;;10.75;1.60;;;20.50;87.60;;;;;;4952350;28;20030;-90
2022/06/27 12:24:04;;;;;;;11.20;1.90;;;20.40;82.90;;;;;;4952955;28;20042;-90
2022/06/27 12:26:29;;;;;;;22.40;2.47;;;20.50;87.30;;;;;;4953923;28;20067;-88
2022/06/27 12:28:55;;;;;;;7.18;1.60;;;20.50;85.80;;;;;;4953302;29;20031;-92
2022/06/27 12:31:21;;;;;;;8.75;1.90;;;20.70;88.80;;;;;;4952798;29;20284;-92
2022/06/27 12:33:46;;;;;;;5.40;1.40;;;20.80;83.50;;;;;;4952357;29;20174;-92
2022/06/27 12:36:14;;;;;;;4.82;1.50;;;20.90;82.80;;;;;;4952809;29;20034;-86
2022/06/27 12:38:40;;;;;;;7.60;1.90;;;20.90;84.80;;;;;;4952969;28;20019;-92
2022/06/27 12:41:13;;;;;;;5.38;1.48;;;20.90;79.80;;;;;;4953064;28;20119;-89
2022/06/27 12:43:44;;;;;;;6.95;1.50;;;20.90;79.50;;;;;;4952525;28;20031;-90
2022/06/27 12:46:10;;;;;;;9.60;1.38;;;21.00;79.80;;;;;;4952908;28;20082;-90
2022/06/27 12:48:39;;;;;;;8.15;1.75;;;21.00;81.00;;;;;;4953103;28;20394;-91
2022/06/27 12:51:06;;;;;;;6.55;1.77;;;21.00;85.80;;;;;;4952674;28;20027;-90
2022/06/27 12:53:33;;;;;;;7.80;1.90;;;21.00;88.20;;;;;;4953246;28;20031;-86
2022/06/27 12:56:01;;;;;;;4.20;1.60;;;21.10;90.70;;;;;;4953295;28;20023;-92
2022/06/27 12:58:27;;;;;;;;;;;21.20;92.30;;;;;;4952815;28;20557;-88
2022/06/27 13:00:53;;;;;;;4.95;1.40;;;21.30;90.50;;;;;;4956400;29;19930;-85
2022/06/27 13:03:19;;;;;;;4.82;1.60;;;21.20;91.60;;;;;;4964258;28;20026;-87
2022/06/27 13:05:44;;;;;;;13.32;1.98;;;21.00;89.20;;;;;;4981085;28;20031;-84
2022/06/27 13:08:10;;;;;;;7.22;1.50;;;21.00;90.80;;;;;;4974624;28;20109;-96
2022/06/27 13:10:36;;;;;;;9.02;1.50;;;21.10;91.60;;;;;;4960615;28;20043;-85
2022/06/27 13:13:05;;;;;;;8.00;1.77;;;21.20;90.10;;;;;;4955147;28;20097;-85
2022/06/27 13:15:37;;;;;;;5.60;1.35;;;21.30;90.30;;;;;;4943418;28;20055;-84
2022/06/27 13:18:04;;;;;;;18.10;2.15;;;21.20;85.30;;;;;;4934202;29;20031;-91
2022/06/27 13:20:30;;;;;;;11.75;1.65;;;21.30;88.10;;;;;;4933455;29;20023;-86
2022/06/27 13:22:56;;;;;;;8.27;1.65;;;21.40;90.60;;;;;;4932413;29;20031;-87
2022/06/27 13:25:22;;;;;;;11.35;2.30;;;21.30;82.40;;;;;;4930788;29;20031;-92
2022/06/27 13:27:48;;;;;;;11.20;1.70;;;21.30;89.40;;;;;;4934247;29;20043;-93
2022/06/27 13:30:14;;;;;;;4.82;1.20;;;21.40;87.70;;;;;;4933809;29;20554;-90
2022/06/27 13:32:40;;;;;;;6.03;1.30;;;21.40;87.20;;;;;;4934122;29;20028;-86
2022/06/27 13:35:07;;;;;;;5.72;1.33;;;21.60;85.60;;;;;;4948240;29;20396;-91
2022/06/27 13:37:33;;;;;;;4.28;1.35;;;21.70;84.60;;;;;;4948695;28;20032;-85
2022/06/27 13:39:58;;;;;;;13.00;1.40;;;21.80;88.40;;;;;;4932577;29;20031;-91
2022/06/27 13:42:24;;;;;;;3.33;0.80;;;21.90;83.90;;;;;;4932038;29;20244;-85
2022/06/27 13:44:50;;;;;;;4.47;1.35;;;22.10;78.30;;;;;;4932168;29;20144;-87
2022/06/27 13:47:16;;;;;;;3.60;1.10;;;22.00;81.00;;;;;;4947332;28;20484;-90
2022/06/27 13:49:42;;;;;;;3.90;1.05;;;21.80;77.80;;;;;;4934803;28;20254;-93
2022/06/27 13:52:08;;;;;;;2.50;0.95;;;21.80;76.60;;;;;;4953733;28;20458;-86
2022/06/27 13:54:34;;;;;;;10.52;1.30;;;21.70;78.20;;;;;;4936722;29;20031;-85
2022/06/27 13:57:00;;;;;;;8.85;1.90;;;21.60;77.80;;;;;;4939767;29;20103;-93
2022/06/27 13:59:26;;;;;;;2.53;1.20;;;21.60;79.30;;;;;;4937437;29;20038;-89
2022/06/27 14:01:52;;;;;;;4.22;1.20;;;21.30;77.00;;;;;;4939941;28;20074;-85